Time;durP1;ratioP1;P1;durP2;ratioP2;P2;SDS_P1;SDS_P2;PMS_P1;PMS_P2;Temp;Humidity;BMP_temperature;BMP_pressure;BME280_temperature;BME280_humidity;BME280_pressure;Samples;Min_cycle;Max_cycle;Signal;HPM_P1;HPM_P2
2022/02/10 05:37:31;;;;;;;8.53;5.70;;;;;;;4.45;60.97;99335.44;6827843;29;20228;-83
2022/02/10 07:52:33;;;;;;;7.77;5.13;;;;;;;8.50;50.52;99359.47;6688207;29;20254;-82
2022/02/10 09:02:09;;;;;;;9.87;6.50;;;;;;;18.53;30.89;99347.19;6844065;28;20324;-84
2022/02/10 09:05:44;;;;;;;5.47;3.90;;;;;;;18.73;30.31;99344.84;6839903;28;20191;-84
2022/02/10 09:13:02;;;;;;;4.97;3.77;;;;;;;19.84;29.78;99334.75;6816984;28;20295;-84
2022/02/10 09:20:21;;;;;;;5.20;3.37;;;;;;;17.07;33.92;99343.97;6839566;29;20206;-84
2022/02/10 10:01:23;;;;;;;5.97;4.13;;;;;;;16.47;36.73;99361.41;6839049;28;20230;-84
2022/02/10 10:04:57;;;;;;;4.93;3.63;;;;;;;16.41;36.88;99368.63;6839441;28;20196;-84
2022/02/10 10:08:30;;;;;;;5.03;3.67;;;;;;;16.63;36.80;99377.94;6841208;28;20198;-84
2022/02/10 10:12:24;;;;;;;5.90;3.97;;;;;;;17.20;35.91;99371.88;6843630;28;20314;-84
2022/02/10 10:15:56;;;;;;;8.17;4.20;;;;;;;17.61;35.06;99355.47;6855213;28;20206;-85
2022/02/10 10:19:30;;;;;;;4.97;3.30;;;;;;;18.15;34.77;99348.78;6854543;28;20578;-85
2022/02/10 10:23:12;;;;;;;8.17;4.63;;;;;;;17.20;34.82;99289.25;6842622;28;20266;-85
2022/02/10 10:56:26;;;;;;;7.30;4.20;;;;;;;17.17;37.68;99350.50;6859495;28;20546;-83
2022/02/10 11:00:23;;;;;;;4.57;3.63;;;;;;;17.24;37.25;99345.81;6865215;28;20266;-83
2022/02/10 11:37:38;;;;;;;8.00;4.67;;;;;;;16.63;39.35;99319.94;6867228;28;20186;-84
2022/02/10 11:41:41;;;;;;;8.33;4.43;;;;;;;16.20;40.21;99324.66;6868370;28;20706;-84
2022/02/10 14:14:35;;;;;;;9.67;6.37;;;;;;;13.70;47.94;99357.53;6835129;28;20217;-86
2022/02/10 14:18:07;;;;;;;7.70;6.57;;;;;;;13.17;48.94;99363.22;6865313;28;20201;-86
2022/02/10 14:21:33;;;;;;;8.57;6.27;;;;;;;12.74;49.67;99373.53;6852198;28;20709;-85
2022/02/10 14:28:34;;;;;;;10.30;6.53;;;;;;;12.82;49.96;99380.63;6858068;28;20211;-86
2022/02/10 14:32:04;;;;;;;19.90;12.90;;;;;;;12.90;49.39;99334.44;6863411;28;20252;-88
2022/02/10 14:35:31;;;;;;;8.97;6.57;;;;;;;12.16;51.55;99392.28;6840897;28;20190;-87
2022/02/10 14:39:00;;;;;;;10.73;6.70;;;;;;;13.12;48.98;99382.81;6838073;28;20201;-87
2022/02/10 14:42:54;;;;;;;10.40;7.17;;;;;;;12.97;49.45;99392.13;6844739;28;20349;-87
2022/02/10 16:11:32;;;;;;;14.57;9.17;;;;;;;12.44;50.46;99371.38;7020886;28;20207;-81
2022/02/10 16:18:43;;;;;;;16.17;8.47;;;;;;;12.20;50.20;99298.91;7081944;27;20307;-80
2022/02/10 16:22:11;;;;;;;12.07;8.93;;;;;;;12.35;49.94;99296.88;7089265;27;20204;-81
2022/02/10 16:25:46;;;;;;;13.27;8.20;;;;;;;12.16;50.90;99344.44;7079756;27;20199;-81
2022/02/10 16:29:10;;;;;;;12.27;8.70;;;;;;;11.89;50.12;99264.31;7081045;28;20200;-80
2022/02/10 16:32:34;;;;;;;12.00;8.57;;;;;;;12.08;50.76;99278.91;7089191;27;20203;-87
2022/02/10 16:35:58;;;;;;;11.70;8.10;;;;;;;11.96;50.66;99267.03;7079800;27;20189;-82
2022/02/10 16:39:20;;;;;;;13.77;8.43;;;;;;;12.56;50.46;99375.19;7060418;28;20228;-82
2022/02/10 16:42:42;;;;;;;12.50;8.67;;;;;;;11.40;51.17;99230.41;7060402;28;20221;-80
2022/02/10 16:46:04;;;;;;;10.63;8.07;;;;;;;11.97;50.69;99265.97;7059829;28;20673;-81
2022/02/10 16:49:27;;;;;;;13.13;8.30;;;;;;;12.77;50.27;99383.13;7059863;28;20197;-81
2022/02/10 16:52:56;;;;;;;14.80;8.97;;;;;;;11.54;50.62;99214.06;7058923;28;20208;-80
2022/02/10 16:56:22;;;;;;;14.37;9.97;;;;;;;11.60;50.66;99255.66;7041963;28;20235;-81
2022/02/10 16:59:50;;;;;;;14.07;8.77;;;;;;;11.91;50.52;99283.00;7029350;28;20595;-81
2022/02/10 17:03:25;;;;;;;26.00;18.30;;;;;;;11.89;50.94;99307.56;7049133;28;20200;-80
2022/02/10 17:14:15;;;;;;;12.83;10.20;;;;;;;11.65;49.82;99172.16;7011509;28;20269;-81
2022/02/10 17:17:59;;;;;;;20.27;9.20;;;;;;;12.59;49.90;99332.31;7033395;28;20744;-80
2022/02/10 17:25:01;;;;;;;13.67;10.40;;;;;;;12.25;49.43;99269.41;7020547;28;20202;-81
2022/02/10 17:25:15;;;;;;;14.07;8.27;;;;;;;12.59;49.27;99351.25;7024281;28;20203;-80
2022/02/10 17:28:39;;;;;;;9.00;6.73;;;;;;;12.52;48.26;99333.34;7025948;28;20182;-81
2022/02/10 17:32:23;;;;;;;15.60;10.97;;;;;;;12.27;47.33;99287.09;7021582;28;20316;-81
2022/02/10 17:36:07;;;;;;;10.10;7.87;;;;;;;12.70;46.71;99384.97;7026256;28;20202;-80
2022/02/10 17:54:39;;;;;;;5.27;4.40;;;;;;;12.63;44.46;99309.22;6979446;28;20254;-79
2022/02/10 17:58:01;;;;;;;5.23;4.57;;;;;;;13.01;44.37;99367.19;6987185;28;20236;-79
2022/02/10 18:01:23;;;;;;;6.83;5.40;;;;;;;13.08;44.08;99356.34;7038184;28;20578;-80
2022/02/10 18:04:46;;;;;;;5.97;5.07;;;;;;;13.29;44.02;99388.63;7037136;28;20200;-79
2022/02/10 18:08:11;;;;;;;21.57;11.27;;;;;;;13.32;44.18;99374.66;7038089;28;20204;-89
2022/02/10 18:15:16;;;;;;;7.67;4.37;;;;;;;12.92;43.82;99327.75;6978299;28;20202;-89
2022/02/10 18:18:49;;;;;;;4.83;3.90;;;;;;;12.38;43.19;99218.03;7015671;28;20235;-95
2022/02/10 18:22:42;;;;;;;6.10;4.73;;;;;;;12.37;43.01;99211.81;7008192;28;20211;-86
2022/02/10 18:26:09;;;;;;;4.93;4.30;;;;;;;12.09;43.51;99183.31;7010435;28;20206;-86
2022/02/10 18:30:00;;;;;;;5.03;4.53;;;;;;;13.30;43.22;99366.78;7010968;28;20193;-81
2022/02/10 18:33:29;;;;;;;7.93;4.50;;;;;;;12.82;42.44;99273.25;7009322;28;20190;-82
2022/02/10 19:06:43;;;;;;;5.40;4.03;;;;;;;11.89;43.21;99175.16;7007588;28;20217;-82
2022/02/10 19:10:08;;;;;;;7.03;4.53;;;;;;;12.14;43.83;99242.97;7008614;28;20189;-82
2022/02/10 19:13:39;;;;;;;7.90;4.80;;;;;;;12.63;43.53;99263.22;7015879;28;20221;-80
2022/02/10 19:17:02;;;;;;;6.20;4.50;;;;;;;12.82;42.94;99299.47;7035770;28;20190;-80
2022/02/10 19:20:24;;;;;;;5.60;4.20;;;;;;;12.81;43.02;99297.78;7047317;28;20225;-81
2022/02/10 19:23:46;;;;;;;8.83;4.00;;;;;;;12.55;43.32;99263.44;7033116;28;20201;-81
2022/02/10 19:27:08;;;;;;;5.40;3.73;;;;;;;13.35;42.64;99379.69;7033848;28;20211;-80
2022/02/10 19:30:46;;;;;;;5.40;3.93;;;;;;;12.86;42.84;99276.38;7011934;28;20197;-81
2022/02/10 19:34:09;;;;;;;4.33;3.73;;;;;;;12.72;43.37;99326.09;7036142;28;20204;-81
2022/02/10 19:37:31;;;;;;;4.67;3.80;;;;;;;12.71;43.33;99300.06;7035736;28;20652;-80
2022/02/10 19:40:55;;;;;;;5.30;3.63;;;;;;;12.90;43.27;99320.91;7011632;28;20260;-81
2022/02/10 19:44:17;;;;;;;7.60;3.53;;;;;;;13.19;42.96;99359.28;7012887;28;20224;-81
2022/02/10 19:47:39;;;;;;;5.27;3.40;;;;;;;12.29;43.78;99249.03;7011252;28;20189;-81
2022/02/10 19:51:02;;;;;;;5.40;3.93;;;;;;;12.45;44.12;99276.50;7035255;28;20201;-80
2022/02/10 19:54:29;;;;;;;6.60;3.60;;;;;;;12.77;43.83;99312.78;7035142;28;20211;-81
2022/02/10 19:57:53;;;;;;;3.90;3.33;;;;;;;12.66;44.50;99341.28;7021152;28;20280;-81
2022/02/10 20:01:15;;;;;;;6.33;3.70;;;;;;;12.72;44.05;99331.50;7035868;28;20201;-81
2022/02/10 20:04:37;;;;;;;3.90;3.50;;;;;;;11.86;44.66;99210.66;7035255;28;20212;-81
2022/02/10 20:08:00;;;;;;;3.47;3.10;;;;;;;11.20;45.14;99124.19;7033319;28;20288;-81
2022/02/10 20:11:22;;;;;;;4.60;4.17;;;;;;;12.05;46.18;99336.09;7008707;28;20562;-81
2022/02/10 20:14:46;;;;;;;4.83;4.10;;;;;;;11.95;46.31;99286.97;7008408;28;20221;-81
2022/02/10 20:18:10;;;;;;;5.93;5.27;;;;;;;11.59;46.54;99235.94;7032863;28;20225;-81
2022/02/10 20:21:32;;;;;;;5.60;5.00;;;;;;;11.26;47.14;99198.94;7007393;28;20303;-81
2022/02/10 20:24:58;;;;;;;5.30;4.80;;;;;;;11.64;47.95;99319.06;7007043;28;20283;-81
2022/02/10 20:28:22;;;;;;;10.43;6.40;;;;;;;11.07;47.72;99224.81;7007245;28;20296;-81
2022/02/10 20:31:45;;;;;;;8.80;7.80;;;;;;;11.17;48.51;99237.94;7006986;28;20206;-81
2022/02/10 20:35:10;;;;;;;10.47;7.80;;;;;;;11.27;48.34;99231.16;7013629;28;20197;-81
2022/02/10 20:38:36;;;;;;;11.67;8.87;;;;;;;11.82;48.14;99316.66;7035270;28;20579;-81
2022/02/10 20:42:04;;;;;;;9.87;7.80;;;;;;;11.18;48.20;99234.22;7033393;28;20204;-81
2022/02/10 20:45:26;;;;;;;13.43;9.07;;;;;;;11.95;47.81;99316.69;7037562;28;20189;-81
2022/02/10 20:48:48;;;;;;;11.97;9.67;;;;;;;11.34;48.09;99247.41;7040322;28;20205;-81
2022/02/10 20:52:09;;;;;;;13.70;8.50;;;;;;;12.12;47.76;99299.09;7019293;28;20205;-81
2022/02/10 20:55:31;;;;;;;12.10;7.97;;;;;;;11.49;47.60;99221.09;7011330;28;20237;-80
2022/02/10 20:58:58;;;;;;;12.77;8.80;;;;;;;11.53;47.46;99203.47;7028800;28;20232;-81
2022/02/10 21:02:29;;;;;;;99.57;47.13;;;;;;;11.62;48.01;99261.72;7036397;28;20691;-81
2022/02/10 21:05:54;;;;;;;24.77;15.00;;;;;;;11.82;48.76;99305.84;7021269;28;20589;-81
2022/02/10 21:09:21;;;;;;;16.93;11.20;;;;;;;11.39;48.79;99229.56;7065983;28;20193;-81
2022/02/10 21:12:44;;;;;;;11.97;8.40;;;;;;;11.88;48.73;99278.88;7018869;28;20198;-80
2022/02/10 21:16:08;;;;;;;11.67;7.20;;;;;;;11.35;48.85;99216.66;7016936;28;20206;-80
2022/02/10 21:19:29;;;;;;;9.93;6.60;;;;;;;11.38;49.04;99217.09;7027392;28;20758;-80
2022/02/10 21:23:00;;;;;;;15.67;10.77;;;;;;;11.00;51.19;99288.69;7016951;28;20209;-80
2022/02/10 21:26:28;;;;;;;11.73;9.63;;;;;;;11.41;50.65;99283.34;7026573;28;20330;-80
2022/02/10 21:29:56;;;;;;;9.47;6.60;;;;;;;10.97;50.25;99186.56;7024630;28;20200;-80
2022/02/10 21:33:30;;;;;;;10.27;6.90;;;;;;;11.47;50.06;99286.13;7034376;28;20217;-80
2022/02/10 21:37:03;;;;;;;11.33;8.23;;;;;;;10.19;51.81;99167.09;7014622;28;20196;-80
2022/02/10 21:48:25;;;;;;;7.03;5.57;;;;;;;11.40;50.89;99271.72;7027354;28;20201;-81
2022/02/10 21:55:49;;;;;;;9.07;5.70;;;;;;;11.83;49.93;99272.38;7032964;28;20224;-81
